Time;durP1;ratioP1;P1;durP2;ratioP2;P2;SDS_P1;SDS_P2;PMS_P1;PMS_P2;Temp;Humidity;BMP_temperature;BMP_pressure;BME280_temperature;BME280_humidity;BME280_pressure;Samples;Min_cycle;Max_cycle;Signal;HPM_P1;HPM_P2
2023/06/25 00:02:36;;;;;;;0.70;0.60;;;;;;;23.92;46.63;101414.88;5209497;28;20096;-84
2023/06/25 00:05:27;;;;;;;0.85;0.50;;;;;;;23.92;46.85;101406.84;5224982;28;20052;-85
2023/06/25 00:08:18;;;;;;;0.38;0.38;;;;;;;23.88;46.68;101399.03;5227850;28;20063;-84
2023/06/25 00:11:08;;;;;;;0.20;0.20;;;;;;;23.85;46.60;101403.75;5229359;28;20086;-86
2023/06/25 00:13:59;;;;;;;0.40;0.40;;;;;;;23.81;46.43;101399.56;5214029;28;20050;-85
2023/06/25 00:16:57;;;;;;;0.50;0.50;;;;;;;23.77;47.30;101396.25;5213984;28;20051;-85
2023/06/25 00:19:48;;;;;;;0.82;0.82;;;;;;;23.76;47.11;101388.34;5212231;28;20068;-85
2023/06/25 00:22:39;;;;;;;0.43;0.43;;;;;;;23.70;47.10;101386.94;5214092;28;20097;-85
2023/06/25 00:25:30;;;;;;;0.73;0.73;;;;;;;23.66;46.89;101393.53;5225961;28;20302;-86
2023/06/25 00:28:20;;;;;;;0.30;0.30;;;;;;;23.60;47.79;101389.44;5215640;28;20063;-86
2023/06/25 00:31:14;;;;;;;0.55;0.35;;;;;;;23.56;47.62;101388.81;5230977;28;20475;-86
2023/06/25 00:34:05;;;;;;;0.63;0.63;;;;;;;23.50;47.55;101389.25;5214672;28;20096;-85
2023/06/25 00:36:56;;;;;;;0.60;0.60;;;;;;;23.51;47.80;101379.41;5213514;28;20039;-85
2023/06/25 00:39:47;;;;;;;0.50;0.50;;;;;;;23.46;47.98;101381.56;5240793;28;20051;-85
2023/06/25 00:42:43;;;;;;;0.85;0.50;;;;;;;23.44;48.71;101378.13;5216037;28;20029;-84
2023/06/25 00:45:34;;;;;;;0.75;0.40;;;;;;;23.39;47.53;101375.78;5225798;28;20729;-85
2023/06/25 00:48:26;;;;;;;0.35;0.30;;;;;;;23.34;47.71;101375.25;5228219;28;20037;-85
2023/06/25 00:51:21;;;;;;;2.20;0.60;;;;;;;23.33;47.92;101371.69;5226702;28;20342;-85
2023/06/25 00:54:12;;;;;;;1.27;0.65;;;;;;;23.33;48.31;101370.84;5210905;28;20120;-86
2023/06/25 00:57:04;;;;;;;0.30;0.30;;;;;;;23.28;48.17;101371.19;5226823;28;20029;-85
2023/06/25 00:59:56;;;;;;;0.80;0.80;;;;;;;23.22;48.33;101369.78;5228801;28;20112;-85
2023/06/25 01:03:09;;;;;;;0.43;0.43;;;;;;;23.17;48.29;101363.88;5236128;28;20599;-84
2023/06/25 01:06:04;;;;;;;0.50;0.50;;;;;;;23.12;48.54;101363.34;5220875;28;20068;-86
2023/06/25 01:08:59;;;;;;;2.85;0.38;;;;;;;23.11;49.33;101361.63;5224536;28;20044;-86
2023/06/25 01:12:00;;;;;;;1.05;0.93;;;;;;;23.10;49.09;101359.91;5221328;28;20033;-84
2023/06/25 01:14:51;;;;;;;0.65;0.57;;;;;;;23.04;49.01;101355.88;5216136;28;20028;-85
2023/06/25 01:17:42;;;;;;;0.52;0.52;;;;;;;23.00;49.09;101358.84;5226193;28;20059;-85
2023/06/25 01:20:38;;;;;;;0.65;0.52;;;;;;;22.98;49.51;101360.78;5240937;28;20037;-86
2023/06/25 01:23:29;;;;;;;0.40;0.40;;;;;;;22.97;49.46;101364.41;5226656;28;20025;-86
2023/06/25 01:26:20;;;;;;;0.35;0.35;;;;;;;22.91;48.94;101352.31;5224987;28;20049;-84
2023/06/25 01:29:11;;;;;;;0.30;0.30;;;;;;;22.88;49.49;101355.22;5212086;28;20123;-85
2023/06/25 01:32:02;;;;;;;0.40;0.40;;;;;;;22.85;49.42;101356.25;5210732;28;20040;-85
2023/06/25 01:34:53;;;;;;;0.40;0.40;;;;;;;22.84;50.14;101354.56;5206787;28;20040;-86
2023/06/25 01:37:43;;;;;;;0.57;0.57;;;;;;;22.77;49.29;101350.59;5208143;28;20041;-84
2023/06/25 01:40:34;;;;;;;1.00;0.98;;;;;;;22.76;49.84;101343.53;5210399;28;20045;-85
2023/06/25 01:43:25;;;;;;;0.30;0.30;;;;;;;22.73;50.37;101341.06;5209152;28;20060;-87
2023/06/25 01:46:16;;;;;;;0.60;0.60;;;;;;;22.69;49.83;101339.56;5220873;28;20111;-84
2023/06/25 01:49:07;;;;;;;0.50;0.50;;;;;;;22.64;49.94;101330.03;5221766;28;20116;-84
2023/06/25 01:51:58;;;;;;;0.43;0.43;;;;;;;22.64;49.94;101326.53;5202669;28;20044;-84
2023/06/25 01:54:49;;;;;;;1.35;0.55;;;;;;;22.62;50.08;101318.59;5221631;28;20032;-86
2023/06/25 01:57:39;;;;;;;0.50;0.50;;;;;;;22.51;49.79;101325.63;5230468;28;20029;-83
2023/06/25 02:00:30;;;;;;;1.23;0.65;;;;;;;22.52;50.42;101314.81;5219925;28;20017;-86
2023/06/25 02:03:21;;;;;;;2.08;1.58;;;;;;;22.48;50.50;101316.00;5237944;28;20070;-85
2023/06/25 02:06:12;;;;;;;0.68;0.68;;;;;;;22.43;49.96;101310.13;5232076;28;20044;-85
2023/06/25 02:09:03;;;;;;;0.68;0.68;;;;;;;22.42;50.95;101313.75;5240457;28;20025;-85
2023/06/25 02:11:54;;;;;;;0.65;0.57;;;;;;;22.39;50.88;101308.59;5238169;28;20021;-85
2023/06/25 02:14:44;;;;;;;0.65;0.65;;;;;;;22.37;50.63;101306.03;5237948;28;20043;-84
2023/06/25 02:17:35;;;;;;;0.45;0.45;;;;;;;22.33;50.33;101305.38;5241745;28;20043;-85
2023/06/25 02:20:26;;;;;;;0.47;0.43;;;;;;;22.30;51.06;101307.41;5242510;28;20045;-86
2023/06/25 02:23:17;;;;;;;0.50;0.50;;;;;;;22.29;50.68;101303.00;5241870;28;20433;-87
2023/06/25 02:26:09;;;;;;;0.45;0.45;;;;;;;22.22;50.33;101302.56;5208938;28;20084;-87
2023/06/25 02:29:00;;;;;;;0.77;0.77;;;;;;;22.20;50.36;101296.44;5217804;28;20032;-87
2023/06/25 02:31:51;;;;;;;0.73;0.73;;;;;;;22.17;50.81;101296.69;5220245;28;20056;-84
2023/06/25 02:34:41;;;;;;;0.85;0.85;;;;;;;22.17;51.52;101302.03;5226174;28;20860;-85
2023/06/25 02:37:32;;;;;;;0.30;0.30;;;;;;;22.10;50.54;101290.03;5209263;28;20102;-87
2023/06/25 02:40:23;;;;;;;0.43;0.43;;;;;;;22.04;50.99;101287.75;5216490;28;20032;-85
2023/06/25 02:43:14;;;;;;;0.30;0.30;;;;;;;22.01;51.19;101287.03;5226931;28;20452;-85
2023/06/25 02:46:05;;;;;;;0.30;0.30;;;;;;;22.02;50.98;101287.88;5212412;28;20410;-85
2023/06/25 02:48:56;;;;;;;0.43;0.43;;;;;;;22.01;51.64;101295.03;5208397;28;20330;-86
2023/06/25 02:51:47;;;;;;;0.88;0.82;;;;;;;21.99;51.31;101282.72;5211857;28;20079;-85
2023/06/25 02:54:37;;;;;;;0.45;0.45;;;;;;;21.95;51.37;101290.06;5225129;28;20037;-86
2023/06/25 02:57:29;;;;;;;0.70;0.70;;;;;;;21.97;51.79;101290.84;5225406;28;20056;-87
2023/06/25 03:00:20;;;;;;;2.40;0.40;;;;;;;21.89;51.26;101286.97;5209723;28;20497;-85
2023/06/25 03:03:11;;;;;;;1.75;1.02;;;;;;;21.84;51.35;101284.59;5232833;28;20029;-85
2023/06/25 03:06:02;;;;;;;0.50;0.50;;;;;;;21.82;51.45;101290.03;5229412;28;20058;-86
2023/06/25 03:08:53;;;;;;;0.32;0.32;;;;;;;21.79;51.60;101292.03;5209655;28;20055;-84
2023/06/25 03:11:43;;;;;;;0.95;0.95;;;;;;;21.78;52.30;101284.97;5225272;28;20057;-85
2023/06/25 03:14:35;;;;;;;4.88;0.75;;;;;;;21.72;51.61;101293.41;5231258;28;20111;-84
2023/06/25 03:17:26;;;;;;;1.00;0.88;;;;;;;21.69;51.65;101300.66;5230630;28;20497;-85
2023/06/25 03:20:17;;;;;;;0.50;0.50;;;;;;;21.70;52.03;101290.84;5218038;28;20094;-85
2023/06/25 03:23:08;;;;;;;0.45;0.45;;;;;;;21.64;52.06;101289.44;5234829;28;20047;-86
2023/06/25 03:25:58;;;;;;;0.38;0.38;;;;;;;21.66;52.31;101287.53;5218095;28;20080;-85
2023/06/25 03:28:51;;;;;;;0.82;0.80;;;;;;;21.63;52.21;101303.72;5231173;28;20025;-86
2023/06/25 03:31:43;;;;;;;2.00;0.75;;;;;;;21.60;52.35;101293.25;5231435;28;20025;-85
2023/06/25 03:34:34;;;;;;;0.40;0.40;;;;;;;21.59;52.14;101291.56;5213245;28;20123;-86
2023/06/25 03:37:25;;;;;;;0.70;0.70;;;;;;;21.56;51.95;101286.38;5236211;28;20041;-85
2023/06/25 03:40:16;;;;;;;0.40;0.40;;;;;;;21.54;52.71;101282.94;5238652;28;20064;-86
2023/06/25 03:43:07;;;;;;;0.90;0.90;;;;;;;21.50;52.14;101284.94;5224842;28;20092;-85
2023/06/25 03:45:57;;;;;;;4.15;2.42;;;;;;;21.49;52.45;101285.06;5228023;28;20721;-87
2023/06/25 03:48:48;;;;;;;0.43;0.43;;;;;;;21.47;52.10;101281.63;5237172;28;20044;-85
2023/06/25 03:51:39;;;;;;;1.40;1.02;;;;;;;21.44;52.19;101281.84;5229155;28;20025;-85
2023/06/25 03:54:30;;;;;;;1.02;0.47;;;;;;;21.47;52.48;101279.81;5226092;28;20044;-87
2023/06/25 03:57:22;;;;;;;4.80;1.50;;;;;;;21.46;52.59;101275.44;5232663;28;20033;-85
2023/06/25 04:00:13;;;;;;;0.90;0.90;;;;;;;21.43;52.72;101280.97;5230394;28;20040;-86
2023/06/25 04:03:04;;;;;;;1.48;1.02;;;;;;;21.41;52.85;101271.34;5215227;28;20059;-84
2023/06/25 04:05:54;;;;;;;0.77;0.75;;;;;;;21.40;52.61;101283.84;5213486;28;20043;-87
2023/06/25 04:08:45;;;;;;;4.78;0.70;;;;;;;21.37;52.81;101276.88;5214925;28;20033;-84
2023/06/25 04:11:36;;;;;;;0.82;0.82;;;;;;;21.38;52.75;101283.06;5218544;28;20100;-85
2023/06/25 04:14:27;;;;;;;0.95;0.50;;;;;;;21.37;52.80;101282.19;5234183;28;20025;-87
2023/06/25 04:17:18;;;;;;;1.83;1.70;;;;;;;21.32;52.92;101278.97;5248271;28;20025;-87
2023/06/25 04:20:09;;;;;;;2.30;1.73;;;;;;;21.31;52.70;101279.94;5234333;28;20103;-87
2023/06/25 04:23:00;;;;;;;0.30;0.30;;;;;;;21.28;53.26;101273.94;5243535;28;20134;-85
2023/06/25 04:25:51;;;;;;;0.70;0.70;;;;;;;21.28;53.28;101280.13;5226432;28;20029;-86
2023/06/25 04:28:41;;;;;;;1.25;1.15;;;;;;;21.26;53.04;101279.38;5233659;28;20521;-87
2023/06/25 04:31:32;;;;;;;0.57;0.57;;;;;;;21.23;53.08;101287.56;5243788;28;20075;-85
2023/06/25 04:34:23;;;;;;;0.40;0.40;;;;;;;21.21;53.18;101281.47;5243772;28;20033;-87
2023/06/25 04:37:14;;;;;;;0.28;0.28;;;;;;;21.19;53.04;101289.56;5227272;28;20033;-86
2023/06/25 04:40:05;;;;;;;0.50;0.50;;;;;;;21.18;53.18;101282.53;5256011;28;20025;-84
2023/06/25 04:42:56;;;;;;;5.20;1.67;;;;;;;21.20;52.94;101285.97;5205140;28;20029;-85
2023/06/25 04:45:47;;;;;;;0.25;0.25;;;;;;;21.16;53.10;101278.25;5212206;28;20048;-85
2023/06/25 04:48:38;;;;;;;0.63;0.63;;;;;;;21.19;52.67;101278.06;5226676;28;20017;-86
2023/06/25 04:51:28;;;;;;;1.98;1.38;;;;;;;21.14;53.55;101281.00;5225788;28;20048;-86
2023/06/25 04:54:19;;;;;;;0.20;0.20;;;;;;;21.15;52.97;101287.19;5227642;28;20032;-85
2023/06/25 04:57:10;;;;;;;0.40;0.40;;;;;;;21.16;52.84;101275.56;5214366;28;20033;-82
2023/06/25 05:00:01;;;;;;;1.20;1.13;;;;;;;21.13;53.29;101278.41;5230401;28;20037;-84
2023/06/25 05:02:51;;;;;;;1.05;0.93;;;;;;;21.13;53.37;101275.75;5229357;28;20021;-85
2023/06/25 05:05:42;;;;;;;0.57;0.57;;;;;;;21.17;53.18;101285.28;5214506;28;20051;-83
2023/06/25 05:08:33;;;;;;;0.70;0.45;;;;;;;21.16;53.11;101278.25;5228670;28;20013;-84
2023/06/25 05:11:24;;;;;;;1.17;1.08;;;;;;;21.15;52.82;101277.41;5221594;28;20078;-85
2023/06/25 05:14:15;;;;;;;0.80;0.80;;;;;;;21.16;52.92;101278.25;5208093;28;20048;-85
2023/06/25 05:17:05;;;;;;;0.73;0.73;;;;;;;21.19;53.44;101283.41;5223968;28;20041;-85
2023/06/25 05:19:56;;;;;;;0.40;0.40;;;;;;;21.18;53.14;101279.00;5211308;28;20032;-84
2023/06/25 05:22:47;;;;;;;0.47;0.47;;;;;;;21.17;53.06;101283.47;5223919;28;20021;-85
2023/06/25 05:25:38;;;;;;;0.30;0.30;;;;;;;21.18;52.89;101281.69;5224200;28;20290;-84
2023/06/25 05:28:28;;;;;;;0.52;0.52;;;;;;;21.20;52.84;101277.06;5227007;28;20032;-86
2023/06/25 05:31:20;;;;;;;0.20;0.20;;;;;;;21.20;52.62;101285.97;5210471;28;20048;-84
2023/06/25 05:34:10;;;;;;;0.63;0.35;;;;;;;21.23;52.52;101284.91;5225816;28;20036;-86
2023/06/25 05:37:01;;;;;;;0.82;0.82;;;;;;;21.22;52.74;101288.50;5227059;28;20242;-84
2023/06/25 05:39:52;;;;;;;0.38;0.38;;;;;;;21.21;52.46;101292.13;5207767;28;20029;-85
2023/06/25 05:42:43;;;;;;;0.70;0.40;;;;;;;21.23;52.64;101287.56;5233552;28;20036;-86
2023/06/25 05:45:34;;;;;;;0.73;0.43;;;;;;;21.23;52.68;101290.22;5214453;28;20037;-86
2023/06/25 05:48:25;;;;;;;2.67;0.40;;;;;;;21.28;52.40;101290.78;5225764;28;20097;-85
2023/06/25 05:51:16;;;;;;;0.20;0.20;;;;;;;21.29;52.91;101295.19;5218639;28;20139;-85
2023/06/25 05:54:07;;;;;;;0.45;0.45;;;;;;;21.30;52.40;101293.38;5236267;28;20033;-86
2023/06/25 05:56:58;;;;;;;0.82;0.82;;;;;;;21.30;52.58;101294.22;5232027;28;20041;-85
2023/06/25 05:59:49;;;;;;;1.35;0.50;;;;;;;21.31;52.26;101285.28;5223783;28;20124;-85
2023/06/25 06:02:39;;;;;;;2.80;1.13;;;;;;;21.34;52.44;101281.53;5228001;28;20370;-85
2023/06/25 06:05:30;;;;;;;0.47;0.47;;;;;;;21.37;52.29;101287.53;5234751;28;20045;-85
2023/06/25 06:08:21;;;;;;;0.82;0.82;;;;;;;21.37;52.92;101292.03;5235235;28;20070;-87
2023/06/25 06:11:12;;;;;;;0.20;0.20;;;;;;;21.42;52.10;101283.72;5224321;28;20092;-86
2023/06/25 06:14:02;;;;;;;0.20;0.20;;;;;;;21.44;52.36;101279.16;5203180;28;20024;-85
2023/06/25 06:16:53;;;;;;;0.65;0.65;;;;;;;21.46;52.61;101274.56;5202549;28;20033;-85
2023/06/25 06:19:44;;;;;;;1.65;1.02;;;;;;;21.47;52.61;101276.28;5200060;28;20596;-85
2023/06/25 06:22:35;;;;;;;1.55;0.80;;;;;;;21.47;53.24;101279.81;5216682;28;20045;-84
2023/06/25 06:25:26;;;;;;;1.10;0.68;;;;;;;21.46;53.99;101279.91;5218910;28;20885;-85
2023/06/25 06:28:16;;;;;;;0.47;0.47;;;;;;;21.42;54.02;101271.22;5219950;28;20032;-85
2023/06/25 06:31:07;;;;;;;0.75;0.75;;;;;;;21.47;54.34;101270.94;5223531;28;20078;-85
2023/06/25 06:33:58;;;;;;;0.73;0.70;;;;;;;21.56;53.35;101266.84;5219608;28;20376;-84
2023/06/25 06:36:49;;;;;;;1.52;0.85;;;;;;;21.60;53.84;101274.56;5204345;28;20036;-85
2023/06/25 06:39:40;;;;;;;0.20;0.20;;;;;;;21.63;54.06;101277.03;5209499;28;20088;-84
2023/06/25 06:42:31;;;;;;;0.57;0.57;;;;;;;21.69;53.22;101271.28;5209393;28;20152;-85
2023/06/25 06:45:21;;;;;;;1.35;0.52;;;;;;;21.72;53.50;101274.72;5218949;28;20039;-86
2023/06/25 06:48:12;;;;;;;0.30;0.30;;;;;;;21.75;53.67;101266.50;5211590;28;20043;-85
2023/06/25 06:51:03;;;;;;;0.43;0.43;;;;;;;21.75;54.85;101259.34;5206819;28;20029;-84
2023/06/25 06:53:54;;;;;;;0.93;0.85;;;;;;;21.79;56.77;101257.31;5220141;28;20024;-86
2023/06/25 06:56:44;;;;;;;0.55;0.55;;;;;;;21.87;55.81;101257.66;5206117;28;20098;-85
2023/06/25 06:59:35;;;;;;;0.55;0.55;;;;;;;21.94;55.96;101266.16;5209989;28;20025;-85
2023/06/25 07:02:26;;;;;;;3.90;0.70;;;;;;;21.96;55.56;101261.56;5210383;28;20039;-85
2023/06/25 07:05:17;;;;;;;0.40;0.40;;;;;;;22.01;57.54;101254.09;5212869;28;20032;-87
2023/06/25 07:08:08;;;;;;;1.05;0.95;;;;;;;22.10;57.41;101256.13;5209783;28;20021;-85
2023/06/25 07:10:58;;;;;;;1.42;1.15;;;;;;;22.21;57.65;101249.22;5208590;28;20036;-85
2023/06/25 07:13:50;;;;;;;0.68;0.60;;;;;;;22.26;57.35;101257.78;5209025;28;20683;-86
2023/06/25 07:16:41;;;;;;;0.45;0.45;;;;;;;22.31;56.28;101259.16;5207720;28;20341;-86
2023/06/25 07:19:32;;;;;;;0.43;0.43;;;;;;;22.32;57.87;101263.56;5220169;28;20028;-87
2023/06/25 07:22:23;;;;;;;1.67;1.13;;;;;;;22.39;57.96;101250.66;5221452;28;20391;-86
2023/06/25 07:25:14;;;;;;;0.52;0.52;;;;;;;22.45;58.60;101254.72;5218760;28;20055;-85
2023/06/25 07:28:05;;;;;;;1.55;1.45;;;;;;;22.54;56.27;101255.91;5209713;28;20032;-87
2023/06/25 07:30:55;;;;;;;0.82;0.82;;;;;;;22.55;55.15;101254.97;5208636;28;20048;-86
2023/06/25 07:33:46;;;;;;;0.82;0.50;;;;;;;22.58;55.18;101255.59;5204517;28;20012;-86
2023/06/25 07:36:37;;;;;;;1.55;0.82;;;;;;;22.63;54.59;101258.78;5218764;28;20037;-85
2023/06/25 07:39:29;;;;;;;0.65;0.65;;;;;;;22.67;54.52;101255.91;5222168;28;20065;-87
2023/06/25 07:42:20;;;;;;;0.40;0.40;;;;;;;22.71;54.25;101257.41;5222127;28;20064;-86
2023/06/25 07:45:11;;;;;;;7.88;1.05;;;;;;;22.75;54.18;101258.91;5222184;28;20056;-86
2023/06/25 07:48:02;;;;;;;0.75;0.47;;;;;;;22.84;54.70;101252.91;5208089;28;20028;-85
2023/06/25 07:50:53;;;;;;;0.85;0.85;;;;;;;22.85;55.02;101251.09;5221971;28;20067;-84
2023/06/25 07:53:44;;;;;;;0.43;0.43;;;;;;;22.98;54.92;101248.38;5205606;28;20056;-84
2023/06/25 07:56:34;;;;;;;1.80;0.60;;;;;;;23.00;54.33;101241.13;5203755;28;20068;-85
2023/06/25 07:59:25;;;;;;;6.78;0.80;;;;;;;23.08;55.96;101246.78;5208627;28;20087;-85
2023/06/25 08:02:16;;;;;;;1.60;0.77;;;;;;;23.11;55.32;101249.22;5221710;28;20032;-85
2023/06/25 08:05:07;;;;;;;1.05;1.02;;;;;;;23.31;56.06;101249.63;5203581;28;20041;-86
2023/06/25 08:07:58;;;;;;;0.80;0.80;;;;;;;23.27;55.40;101244.50;5221522;28;20033;-85
2023/06/25 08:10:51;;;;;;;0.43;0.43;;;;;;;23.31;55.65;101242.44;5223112;28;20041;-85
2023/06/25 08:13:42;;;;;;;0.50;0.50;;;;;;;23.38;56.07;101240.19;5222129;28;20112;-85
2023/06/25 08:16:33;;;;;;;0.75;0.75;;;;;;;23.45;56.57;101240.59;5224176;28;20037;-84
2023/06/25 08:19:24;;;;;;;0.88;0.88;;;;;;;23.45;57.17;101244.13;5209908;28;20051;-85
2023/06/25 08:22:14;;;;;;;1.02;0.77;;;;;;;23.59;56.35;101243.09;5206434;28;20533;-85
2023/06/25 08:25:09;;;;;;;0.77;0.77;;;;;;;23.58;54.49;101236.03;5220438;28;20036;-86
2023/06/25 08:28:01;;;;;;;0.55;0.55;;;;;;;23.71;56.08;101238.66;5232890;28;20029;-84
2023/06/25 08:30:52;;;;;;;1.23;0.82;;;;;;;23.74;56.69;101241.13;5225214;28;20033;-84
2023/06/25 08:33:43;;;;;;;0.30;0.30;;;;;;;23.80;56.68;101237.97;5238702;28;20036;-85
2023/06/25 08:36:33;;;;;;;1.40;0.60;;;;;;;23.89;55.76;101239.97;5221891;28;20041;-86
2023/06/25 08:39:24;;;;;;;0.55;0.55;;;;;;;23.95;55.61;101233.31;5225612;28;20057;-86
2023/06/25 08:42:15;;;;;;;0.70;0.70;;;;;;;24.00;56.22;101231.13;5222525;28;20119;-87
2023/06/25 08:45:06;;;;;;;4.43;1.25;;;;;;;24.02;56.07;101236.38;5203052;28;20025;-86
2023/06/25 08:48:02;;;;;;;1.98;0.90;;;;;;;24.06;55.52;101229.81;5210873;28;20033;-85
2023/06/25 08:51:02;;;;;;;2.20;0.85;;;;;;;24.15;55.72;101228.25;5205086;28;20461;-86
2023/06/25 08:53:56;;;;;;;0.52;0.52;;;;;;;24.20;54.72;101226.91;5222730;28;20025;-85
2023/06/25 08:56:46;;;;;;;0.50;0.50;;;;;;;24.24;53.56;101226.69;5208135;28;20029;-86
2023/06/25 08:59:37;;;;;;;0.60;0.60;;;;;;;24.30;53.41;101218.16;5229504;28;20014;-85
2023/06/25 09:02:29;;;;;;;0.50;0.50;;;;;;;24.38;54.20;101222.94;5245044;28;20092;-86
2023/06/25 09:05:27;;;;;;;0.40;0.40;;;;;;;24.64;54.17;101226.25;5244696;28;20024;-87
2023/06/25 09:08:19;;;;;;;0.47;0.47;;;;;;;24.61;54.61;101218.44;5248278;28;20027;-87
2023/06/25 09:11:10;;;;;;;1.25;1.15;;;;;;;24.68;55.76;101225.06;5226940;28;20164;-86
2023/06/25 09:14:02;;;;;;;0.68;0.68;;;;;;;24.68;55.74;101225.06;5223782;28;20037;-85
2023/06/25 09:16:54;;;;;;;0.50;0.50;;;;;;;24.76;52.58;101222.63;5207917;28;20235;-86
2023/06/25 09:19:45;;;;;;;0.93;0.93;;;;;;;24.77;51.63;101221.66;5223758;28;20020;-85
2023/06/25 09:23:08;;;;;;;0.98;0.98;;;;;;;24.88;51.16;101214.56;5220732;28;20059;-85
2023/06/25 09:26:05;;;;;;;0.53;0.33;;;;;;;24.83;50.84;101217.63;5167673;28;20072;-85
2023/06/25 09:28:59;;;;;;;1.13;1.13;;;;;;;24.96;49.46;101212.13;5222568;28;20285;-85
2023/06/25 09:31:50;;;;;;;0.60;0.60;;;;;;;24.96;49.50;101209.44;5204376;28;20537;-85
2023/06/25 09:34:41;;;;;;;0.75;0.75;;;;;;;25.05;49.81;101208.72;5223987;28;20449;-86
2023/06/25 09:37:36;;;;;;;0.30;0.30;;;;;;;25.17;47.92;101203.28;5215277;28;20052;-85
2023/06/25 09:40:27;;;;;;;0.65;0.65;;;;;;;25.17;47.38;101197.94;5210155;28;20033;-86
2023/06/25 09:43:18;;;;;;;0.50;0.50;;;;;;;25.22;47.53;101203.78;5223484;28;20035;-85
2023/06/25 09:46:10;;;;;;;0.35;0.35;;;;;;;25.28;47.94;101195.22;5208794;28;20048;-85
2023/06/25 09:49:02;;;;;;;1.65;1.30;;;;;;;25.32;45.56;101195.81;5208965;28;20115;-85
2023/06/25 09:52:07;;;;;;;0.45;0.45;;;;;;;25.24;46.67;101188.41;5218214;28;20036;-85
2023/06/25 09:54:58;;;;;;;0.50;0.50;;;;;;;25.32;47.67;101185.94;5220013;28;20032;-85
2023/06/25 09:57:50;;;;;;;0.47;0.47;;;;;;;25.43;46.62;101182.41;5203895;28;20432;-86
2023/06/25 10:00:42;;;;;;;0.70;0.70;;;;;;;25.69;47.18;101180.22;5200407;28;20052;-85
2023/06/25 10:03:34;;;;;;;0.85;0.85;;;;;;;25.67;48.99;101182.16;5236946;28;20029;-86
2023/06/25 10:06:25;;;;;;;0.98;0.40;;;;;;;25.70;47.75;101183.78;5204537;28;20037;-85
2023/06/25 10:09:15;;;;;;;0.20;0.20;;;;;;;25.86;48.66;101177.94;5210905;28;20028;-85
2023/06/25 10:12:10;;;;;;;1.30;1.20;;;;;;;26.14;46.48;101176.44;5222605;28;20049;-85
2023/06/25 10:15:01;;;;;;;0.47;0.47;;;;;;;26.05;46.19;101174.50;5214999;28;20032;-86
2023/06/25 10:17:53;;;;;;;0.75;0.75;;;;;;;26.10;46.51;101166.09;5224211;28;20021;-86
2023/06/25 10:20:44;;;;;;;0.40;0.40;;;;;;;26.19;44.82;101166.16;5188569;28;20037;-84
2023/06/25 10:23:59;;;;;;;0.70;0.70;;;;;;;26.42;45.92;101168.69;5207005;28;20067;-85
2023/06/25 10:26:54;;;;;;;0.60;0.57;;;;;;;26.37;45.77;101157.44;5199022;28;20677;-85
2023/06/25 10:29:44;;;;;;;0.52;0.52;;;;;;;26.68;45.18;101152.91;5218109;28;20435;-86
2023/06/25 10:32:41;;;;;;;0.68;0.60;;;;;;;26.50;46.50;101149.16;5217187;28;20654;-86
2023/06/25 10:35:40;;;;;;;0.73;0.73;;;;;;;26.63;44.89;101144.41;5202465;28;20060;-85
2023/06/25 10:38:31;;;;;;;0.45;0.45;;;;;;;26.76;45.03;101144.19;5222936;28;20067;-85
2023/06/25 10:41:29;;;;;;;2.80;1.48;;;;;;;27.00;42.28;101151.03;5238228;28;20055;-86
2023/06/25 10:44:27;;;;;;;1.10;0.50;;;;;;;26.93;42.30;101139.13;5243432;28;20194;-87
2023/06/25 10:47:18;;;;;;;0.20;0.20;;;;;;;26.93;41.28;101139.97;5230470;28;20216;-84
2023/06/25 10:50:15;;;;;;;0.80;0.80;;;;;;;26.95;42.63;101140.69;5220917;28;20363;-86
2023/06/25 10:53:11;;;;;;;0.40;0.40;;;;;;;27.16;42.05;101137.03;5208359;28;20021;-85
2023/06/25 10:56:03;;;;;;;0.45;0.45;;;;;;;27.06;42.64;101133.50;5217271;28;20545;-86
2023/06/25 10:58:57;;;;;;;1.23;0.75;;;;;;;27.29;38.94;101134.06;5201940;28;20102;-85
2023/06/25 11:01:50;;;;;;;0.35;0.35;;;;;;;27.23;39.71;101123.84;5205593;28;20500;-85
2023/06/25 11:04:42;;;;;;;0.98;0.55;;;;;;;27.45;39.92;101125.44;5216456;28;20031;-84
2023/06/25 11:07:33;;;;;;;0.60;0.60;;;;;;;27.54;40.42;101121.91;5205580;28;20037;-86
2023/06/25 11:10:25;;;;;;;0.25;0.25;;;;;;;27.38;41.54;101113.50;5200748;28;20068;-86
2023/06/25 11:13:15;;;;;;;0.63;0.63;;;;;;;27.33;42.67;101113.94;5227901;28;20066;-86
2023/06/25 11:16:06;;;;;;;0.30;0.30;;;;;;;27.65;39.91;101110.94;5201938;28;20422;-87
2023/06/25 11:18:57;;;;;;;0.52;0.52;;;;;;;27.81;42.08;101112.19;5210184;28;20029;-87
2023/06/25 11:21:50;;;;;;;0.35;0.35;;;;;;;27.84;42.33;101106.53;5200673;28;20981;-86
2023/06/25 11:24:41;;;;;;;0.50;0.50;;;;;;;27.86;41.45;101101.84;5206872;28;20096;-87
2023/06/25 11:27:32;;;;;;;0.55;0.55;;;;;;;27.87;41.85;101100.84;5205188;28;20464;-87
2023/06/25 11:30:26;;;;;;;2.15;0.88;;;;;;;28.09;41.46;101098.81;5221542;28;20029;-87
2023/06/25 11:33:18;;;;;;;0.63;0.60;;;;;;;28.02;41.64;101094.97;5206251;28;20025;-88
2023/06/25 11:36:10;;;;;;;0.68;0.68;;;;;;;28.34;41.59;101099.16;5210921;28;20107;-87
2023/06/25 11:39:01;;;;;;;0.70;0.70;;;;;;;28.32;42.52;101098.44;5232614;28;20228;-89
2023/06/25 11:41:52;;;;;;;0.30;0.30;;;;;;;28.34;42.71;101091.06;5228566;28;20044;-86
2023/06/25 11:44:44;;;;;;;0.60;0.60;;;;;;;28.62;40.12;101082.97;5212135;28;20405;-86
2023/06/25 11:47:35;;;;;;;0.43;0.43;;;;;;;28.77;40.99;101088.69;5211412;28;20048;-87
2023/06/25 11:50:27;;;;;;;5.05;1.75;;;;;;;28.82;39.21;101087.25;5211746;28;20682;-85
2023/06/25 11:53:18;;;;;;;0.43;0.43;;;;;;;29.01;38.60;101085.41;5230777;28;20087;-86
2023/06/25 11:56:09;;;;;;;0.85;0.85;;;;;;;28.89;40.21;101088.34;5209869;28;20345;-87
2023/06/25 11:59:00;;;;;;;0.77;0.77;;;;;;;29.14;37.53;101071.53;5217832;28;20112;-86
2023/06/25 12:01:50;;;;;;;0.55;0.32;;;;;;;29.31;38.55;101070.69;5221726;28;20678;-86
2023/06/25 12:04:41;;;;;;;1.05;0.77;;;;;;;29.31;39.39;101056.28;5226007;28;20025;-86
2023/06/25 12:07:32;;;;;;;0.93;0.52;;;;;;;29.55;38.44;101062.91;5208132;28;20040;-87
2023/06/25 12:10:23;;;;;;;0.45;0.45;;;;;;;29.50;39.76;101053.44;5216697;28;20033;-87
2023/06/25 12:13:14;;;;;;;1.95;0.40;;;;;;;29.63;39.07;101054.84;5230219;28;20261;-88
2023/06/25 12:16:04;;;;;;;0.70;0.70;;;;;;;29.74;39.75;101051.91;5208142;28;20037;-85
2023/06/25 12:18:56;;;;;;;0.55;0.47;;;;;;;30.12;38.30;101052.47;5227533;28;20540;-87
2023/06/25 12:21:47;;;;;;;0.40;0.40;;;;;;;30.00;39.86;101045.66;5210105;28;20053;-87
2023/06/25 12:24:38;;;;;;;0.50;0.50;;;;;;;30.22;38.80;101037.94;5207768;28;20095;-87
2023/06/25 12:27:29;;;;;;;1.17;0.73;;;;;;;30.20;39.68;101045.41;5220671;28;20037;-88
2023/06/25 12:30:21;;;;;;;2.25;1.23;;;;;;;30.36;39.21;101042.75;5209702;28;20679;-86
2023/06/25 12:33:12;;;;;;;1.65;1.33;;;;;;;30.46;39.38;101038.03;5208452;28;20036;-87
2023/06/25 12:36:03;;;;;;;0.73;0.73;;;;;;;30.54;38.60;101039.97;5221434;28;20037;-87
2023/06/25 12:38:54;;;;;;;0.30;0.30;;;;;;;30.58;39.57;101033.19;5209729;28;20545;-87
2023/06/25 12:41:45;;;;;;;10.05;2.25;;;;;;;30.69;38.52;101026.63;5220399;28;20437;-88
2023/06/25 12:44:36;;;;;;;0.65;0.65;;;;;;;30.80;38.17;101019.19;5215592;28;20029;-87
2023/06/25 12:47:26;;;;;;;0.45;0.45;;;;;;;30.84;38.47;101015.13;5207098;28;20045;-86
2023/06/25 12:50:18;;;;;;;0.47;0.47;;;;;;;31.02;39.05;101013.13;5222821;28;20724;-86
2023/06/25 12:53:09;;;;;;;0.30;0.30;;;;;;;31.07;38.97;101007.19;5205024;28;20501;-87
2023/06/25 12:55:59;;;;;;;0.30;0.30;;;;;;;31.27;36.76;101010.41;5223113;28;20770;-87
2023/06/25 12:58:50;;;;;;;0.20;0.20;;;;;;;31.35;38.40;100996.00;5225315;28;20613;-86
2023/06/25 13:01:41;;;;;;;1.65;0.90;;;;;;;31.47;35.81;100993.78;5218471;28;20037;-86
2023/06/25 13:04:32;;;;;;;0.45;0.45;;;;;;;31.55;35.46;100996.47;5207839;28;20037;-87
2023/06/25 13:07:23;;;;;;;0.75;0.75;;;;;;;31.67;36.87;101000.53;5191929;28;20041;-88
2023/06/25 13:10:14;;;;;;;0.93;0.93;;;;;;;31.88;35.40;100990.97;5210240;28;20060;-87
2023/06/25 13:13:04;;;;;;;0.55;0.55;;;;;;;31.80;36.08;100999.13;5207838;28;20028;-86
2023/06/25 13:15:55;;;;;;;0.55;0.55;;;;;;;31.75;33.83;100993.41;5221786;28;20036;-87
2023/06/25 13:18:46;;;;;;;0.40;0.40;;;;;;;31.95;35.50;100985.69;5206390;28;20033;-85